KBIS/BIS METAR and TAF weather

Enter ICAO airport designator
Station Type Date Time Source
KBIS METAR 2022/05/23 14:52 UTC NOAA

KBIS 231452Z 12009G17KT 10SM BKN090 OVC110 12/04 A3016 RMK AO2 SLP221 60001 T01220039 58009


Station Type Date Time Source
KBIS Decoded METAR 2022/05/23 14:52 UTC NOAA

BISMARCK MUNICIPAL AIRPORT, ND, United States (KBIS) 46-47N 100-45W 503M
May 23, 2022 - 10:52 AM EDT / 2022.05.23 1452 UTC
Wind: from the ESE (120 degrees) at 10 MPH (9 KT) gusting to 20 MPH (17 KT):0
Visibility: 10 mile(s):0
Sky conditions: overcast
Temperature: 54.0 F (12.2 C)
Dew Point: 39.0 F (3.9 C)
Relative Humidity: 56%
Pressure (altimeter): 30.16 in. Hg (1021 hPa)
Pressure tendency: 0.03 inches (0.9 hPa) lower than three hours ago
ob: KBIS 231452Z 12009G17KT 10SM BKN090 OVC110 12/04 A3016 RMK AO2 SLP221 60001 T01220039 58009
cycle: 15

Station Type Date Time Source
KBIS TAF 2022/05/23 12:36 UTC NOAA

TAF KBIS 231134Z 2312/2412 13008KT P6SM VCSH SCT070 BKN090
FM231500 14011KT P6SM SCT045 BKN100
FM232100 18012G20KT P6SM VCTS SCT040CB BKN100
FM240400 17009KT P6SM SCT100

Example: see airport list